createdAt,value
2022-09-10T00:01:59.655Z,101732.88
2022-09-10T00:04:27.979Z,101729.72
2022-09-10T00:06:55.759Z,101728.72
2022-09-10T00:09:23.237Z,101734.69
2022-09-10T00:11:50.566Z,101721.91
2022-09-10T00:14:19.427Z,101720.59
2022-09-10T00:16:46.687Z,101722.97
2022-09-10T00:19:14.990Z,101716.28
2022-09-10T00:21:42.395Z,101713.47
2022-09-10T00:24:09.823Z,101716.72
2022-09-10T00:26:40.665Z,101708.66
2022-09-10T00:29:09.377Z,101719.19
2022-09-10T00:31:37.370Z,101714.53
2022-09-10T00:34:05.809Z,101714.66
2022-09-10T00:36:36.134Z,101722.97
2022-09-10T00:39:05.346Z,101710.19
2022-09-10T00:41:33.564Z,101700.22
2022-09-10T00:44:02.594Z,101707.56
2022-09-10T00:46:33.041Z,101708.78
2022-09-10T00:49:02.737Z,101706.66
2022-09-10T00:51:32.238Z,101703.00
2022-09-10T00:54:00.481Z,101711.81
2022-09-10T00:56:28.461Z,101707.28
2022-09-10T00:58:56.269Z,101703.00
2022-09-10T01:01:23.463Z,101701.69
2022-09-10T01:03:50.889Z,101703.97
2022-09-10T01:06:18.533Z,101707.28
2022-09-10T01:08:45.837Z,101703.88
2022-09-10T01:11:28.464Z,101699.13
2022-09-10T01:14:22.171Z,101703.69
2022-09-10T01:17:08.689Z,101698.56
2022-09-10T01:19:54.955Z,101702.72
2022-09-10T01:22:25.753Z,101704.16
2022-09-10T01:24:55.841Z,101696.88
2022-09-10T01:27:27.092Z,101707.78
2022-09-10T01:30:03.418Z,101705.41
2022-09-10T01:32:52.614Z,101701.69
2022-09-10T01:35:30.358Z,101706.91
2022-09-10T01:37:59.826Z,101706.06
2022-09-10T01:40:30.318Z,101696.41
2022-09-10T01:43:03.176Z,101689.38
2022-09-10T01:45:33.133Z,101692.72
2022-09-10T01:48:19.438Z,101691.47
2022-09-10T01:51:00.474Z,101695.41
2022-09-10T01:53:31.042Z,101684.13
2022-09-10T01:56:16.850Z,101688.06
2022-09-10T01:58:45.420Z,101691.38
2022-09-10T02:01:32.385Z,101681.34
2022-09-10T02:04:06.794Z,101680.66
2022-09-10T02:06:36.429Z,101689.16
2022-09-10T02:09:05.547Z,101688.50
2022-09-10T02:11:43.308Z,101683.72
2022-09-10T02:14:14.204Z,101685.22
2022-09-10T02:17:09.868Z,101683.53
2022-09-10T02:19:37.665Z,101676.03
2022-09-10T02:22:05.649Z,101680.53
2022-09-10T02:24:32.885Z,101680.53
2022-09-10T02:27:00.754Z,101672.41
2022-09-10T02:29:29.328Z,101672.44
2022-09-10T02:31:56.539Z,101666.81
2022-09-10T02:34:24.669Z,101668.78
2022-09-10T02:36:51.958Z,101670.28
2022-09-10T02:39:20.113Z,101672.22
2022-09-10T02:41:48.216Z,101661.38
2022-09-10T02:44:16.154Z,101670.28
2022-09-10T02:46:43.557Z,101666.22
2022-09-10T02:49:11.138Z,101657.22
2022-09-10T02:51:39.575Z,101658.16
2022-09-10T02:54:07.636Z,101661.38
2022-09-10T02:56:35.405Z,101658.16
2022-09-10T02:59:04.198Z,101659.00
2022-09-10T03:01:32.788Z,101660.09
2022-09-10T03:04:03.438Z,101661.47
2022-09-10T03:06:32.072Z,101650.16
2022-09-10T03:08:59.231Z,101650.72
2022-09-10T03:11:27.775Z,101642.31
2022-09-10T03:13:55.781Z,101643.63
2022-09-10T03:16:24.436Z,101641.72
2022-09-10T03:18:52.505Z,101637.69
2022-09-10T03:21:21.563Z,101648.00
2022-09-10T03:23:49.599Z,101647.34
2022-09-10T03:26:22.729Z,101636.53
2022-09-10T03:28:50.244Z,101646.72
2022-09-10T03:31:20.116Z,101649.75
2022-09-10T03:33:49.368Z,101642.09
2022-09-10T03:36:18.282Z,101645.19
2022-09-10T03:38:48.085Z,101646.72
2022-09-10T03:41:15.441Z,101647.16
2022-09-10T03:43:42.662Z,101646.53
2022-09-10T03:46:12.244Z,101636.09
2022-09-10T03:48:45.859Z,101648.63
2022-09-10T03:51:13.436Z,101650.25
2022-09-10T03:53:41.038Z,101646.94
2022-09-10T03:56:13.000Z,101653.53
2022-09-10T03:58:41.314Z,101646.25
2022-09-10T04:01:10.126Z,101648.56
2022-09-10T04:03:42.350Z,101643.66
2022-09-10T04:06:10.856Z,101640.06
2022-09-10T04:08:38.446Z,101635.13
2022-09-10T04:11:08.509Z,101644.53
2022-09-10T04:13:35.739Z,101638.41
2022-09-10T04:16:03.253Z,101635.94
2022-09-10T04:18:34.430Z,101633.50
2022-09-10T04:21:03.329Z,101628.16
2022-09-10T04:23:30.510Z,101622.09
2022-09-10T04:25:58.439Z,101627.34
2022-09-10T04:28:26.053Z,101620.91
2022-09-10T04:30:54.935Z,101628.41
2022-09-10T04:33:25.152Z,101617.19
2022-09-10T04:35:53.420Z,101618.91
2022-09-10T04:38:20.998Z,101615.16
2022-09-10T04:40:49.709Z,101622.06
2022-09-10T04:43:17.445Z,101622.78
2022-09-10T04:45:45.277Z,101616.38
2022-09-10T04:48:13.131Z,101617.47
2022-09-10T04:50:54.082Z,101615.50
2022-09-10T04:53:28.349Z,101622.31
2022-09-10T04:55:57.460Z,101624.53
2022-09-10T04:58:24.849Z,101624.34
2022-09-10T05:00:52.135Z,101627.38
2022-09-10T05:03:20.626Z,101613.63
2022-09-10T05:05:48.734Z,101619.94
2022-09-10T05:08:16.058Z,101621.47
2022-09-10T05:10:50.556Z,101619.63
2022-09-10T05:13:18.721Z,101622.50
2022-09-10T05:15:46.184Z,101634.91
2022-09-10T05:18:16.731Z,101631.25
2022-09-10T05:20:45.113Z,101627.75
2022-09-10T05:23:12.628Z,101619.50
2022-09-10T05:25:43.704Z,101628.78
2022-09-10T05:28:11.480Z,101625.44
2022-09-10T05:30:38.739Z,101619.25
2022-09-10T05:33:06.467Z,101622.81
2022-09-10T05:35:34.838Z,101626.34
2022-09-10T05:38:02.345Z,101623.09
2022-09-10T05:40:32.805Z,101619.72
2022-09-10T05:43:00.340Z,101626.59
2022-09-10T05:45:27.676Z,101624.44
2022-09-10T05:47:57.315Z,101627.75
2022-09-10T05:50:24.719Z,101623.19
2022-09-10T05:52:53.380Z,101620.78
2022-09-10T05:55:21.082Z,101617.78
2022-09-10T05:57:49.276Z,101619.03
2022-09-10T06:00:19.473Z,101626.88
2022-09-10T06:02:57.510Z,101619.25
2022-09-10T06:05:29.399Z,101619.63
2022-09-10T06:07:57.653Z,101619.44
2022-09-10T06:10:25.061Z,101619.91
2022-09-10T06:12:52.843Z,101617.00
2022-09-10T06:15:21.399Z,101610.53
2022-09-10T06:17:54.184Z,101615.00
2022-09-10T06:20:21.750Z,101619.19
2022-09-10T06:22:49.338Z,101614.38
2022-09-10T06:25:16.986Z,101610.56
2022-09-10T06:27:44.810Z,101618.00
2022-09-10T06:30:12.372Z,101584.91
2022-09-10T06:32:43.101Z,101609.31
2022-09-10T06:35:10.635Z,101607.44
2022-09-10T06:37:38.043Z,101612.78
2022-09-10T06:40:08.933Z,101616.13
2022-09-10T06:42:37.172Z,101609.19
2022-09-10T06:45:18.332Z,101605.63
2022-09-10T06:48:38.177Z,101611.91
2022-09-10T06:51:12.737Z,101610.06
2022-09-10T06:53:41.260Z,101607.97
2022-09-10T06:56:12.501Z,101606.88
2022-09-10T06:58:40.251Z,101604.66
2022-09-10T07:01:13.740Z,101591.81
2022-09-10T07:03:44.173Z,101601.41
2022-09-10T07:06:17.541Z,101595.00
2022-09-10T07:08:47.954Z,101599.72
2022-09-10T07:11:15.946Z,101603.78
2022-09-10T07:13:44.800Z,101611.09
2022-09-10T07:16:12.409Z,101609.28
2022-09-10T07:18:39.850Z,101613.94
2022-09-10T07:21:10.775Z,101598.09
2022-09-10T07:23:44.236Z,101595.97
2022-09-10T07:26:14.305Z,101601.19
2022-09-10T07:28:48.111Z,101602.16
2022-09-10T07:31:18.294Z,101596.34
2022-09-10T07:33:47.428Z,101602.16
2022-09-10T07:36:16.324Z,101603.31
2022-09-10T07:38:45.395Z,101607.81
2022-09-10T07:41:14.280Z,101612.31
2022-09-10T07:43:43.638Z,101602.16
2022-09-10T07:46:13.459Z,101610.28
2022-09-10T07:48:41.616Z,101609.78
2022-09-10T07:51:11.806Z,101608.84
2022-09-10T07:53:47.517Z,101610.56
2022-09-10T07:56:18.360Z,101607.38
2022-09-10T07:58:45.699Z,101600.47
2022-09-10T08:01:13.586Z,101600.44
2022-09-10T08:03:40.874Z,101598.47
2022-09-10T08:06:10.347Z,101593.25
2022-09-10T08:08:39.953Z,101599.72
2022-09-10T08:11:12.853Z,101597.47
2022-09-10T08:13:44.303Z,101590.06
2022-09-10T08:16:15.245Z,101596.88
2022-09-10T08:18:47.006Z,101586.34
2022-09-10T08:21:16.522Z,101584.00
2022-09-10T08:23:51.079Z,101594.50
2022-09-10T08:26:23.792Z,101587.59
2022-09-10T08:28:53.150Z,101600.44
2022-09-10T08:31:22.295Z,101588.56
2022-09-10T08:33:56.987Z,101587.56
2022-09-10T08:36:26.270Z,101590.16
2022-09-10T08:38:59.896Z,101597.16
2022-09-10T08:41:38.552Z,101586.81
2022-09-10T08:44:12.517Z,101588.09
2022-09-10T08:46:40.069Z,101581.16
2022-09-10T08:49:12.279Z,101574.25
2022-09-10T08:51:46.771Z,101579.94
2022-09-10T08:54:20.662Z,101577.97
2022-09-10T08:56:48.587Z,101572.50
2022-09-10T08:59:21.812Z,101574.75
2022-09-10T09:01:52.779Z,101576.72
2022-09-10T09:04:38.750Z,101582.19
2022-09-10T09:07:16.046Z,101582.16
2022-09-10T09:09:54.523Z,101575.50
2022-09-10T09:12:32.570Z,101584.75
2022-09-10T09:15:00.462Z,101586.13
2022-09-10T09:17:34.242Z,101579.47
2022-09-10T09:20:25.804Z,101571.78
2022-09-10T09:22:55.510Z,101564.03
2022-09-10T09:25:47.458Z,101561.88
2022-09-10T09:28:35.578Z,101562.63
2022-09-10T09:31:09.249Z,101559.22
2022-09-10T09:33:38.943Z,101576.63
2022-09-10T09:36:08.163Z,101560.41
2022-09-10T09:38:41.445Z,101560.84
2022-09-10T09:41:32.240Z,101559.78
2022-09-10T09:44:16.935Z,101550.78
2022-09-10T09:46:45.032Z,101540.66
2022-09-10T09:49:16.798Z,101549.09
2022-09-10T09:51:47.952Z,101548.06
2022-09-10T09:54:56.708Z,101544.63
2022-09-10T09:57:14.552Z,101551.31
2022-09-10T09:59:42.122Z,101543.63
2022-09-10T10:02:12.445Z,101544.63
2022-09-10T10:04:42.436Z,101537.84
2022-09-10T10:07:11.971Z,101541.22
2022-09-10T10:09:42.897Z,101539.69
2022-09-10T10:12:20.148Z,101530.78
2022-09-10T10:14:47.456Z,101531.03
2022-09-10T10:17:22.519Z,101526.31
2022-09-10T10:19:59.060Z,101523.38
2022-09-10T10:22:27.175Z,101523.75
2022-09-10T10:24:54.572Z,101524.03
2022-09-10T10:27:33.072Z,101531.31
2022-09-10T10:30:18.615Z,101535.44
2022-09-10T10:32:58.815Z,101527.84
2022-09-10T10:35:32.866Z,101530.72
2022-09-10T10:38:17.361Z,101528.81
2022-09-10T10:40:45.211Z,101528.00
2022-09-10T10:43:18.812Z,101528.06
2022-09-10T10:46:01.307Z,101523.88
2022-09-10T10:48:37.773Z,101520.09
2022-09-10T10:51:11.828Z,101519.69
2022-09-10T10:53:49.464Z,101521.41
2022-09-10T10:56:36.214Z,101511.28
2022-09-10T10:59:04.559Z,101520.16
2022-09-10T11:01:35.253Z,101517.34
2022-09-10T11:04:02.601Z,101521.84
2022-09-10T11:06:35.281Z,101519.81
2022-09-10T11:09:06.330Z,101513.25
2022-09-10T11:11:37.221Z,101502.66
2022-09-10T11:14:13.396Z,101500.44
2022-09-10T11:16:49.793Z,101506.84
2022-09-10T11:19:25.591Z,101513.13
2022-09-10T11:21:59.826Z,101508.28
2022-09-10T11:24:34.108Z,101506.28
2022-09-10T11:27:11.705Z,101501.13
2022-09-10T11:29:50.033Z,101498.63
2022-09-10T11:32:23.411Z,101500.81
2022-09-10T11:35:09.518Z,101482.66
2022-09-10T11:37:51.921Z,101487.84
2022-09-10T11:40:27.579Z,101485.31
2022-09-10T11:42:56.835Z,101482.88
2022-09-10T11:45:32.373Z,101478.72
2022-09-10T11:48:06.040Z,101476.94
2022-09-10T11:50:40.055Z,101474.88
2022-09-10T11:53:11.921Z,101476.25
2022-09-10T11:55:42.887Z,101466.00
2022-09-10T11:58:20.952Z,101464.88
2022-09-10T12:01:01.040Z,101465.91
2022-09-10T12:03:37.380Z,101465.84
2022-09-10T12:06:16.366Z,101463.34
2022-09-10T12:09:02.251Z,101465.09
2022-09-10T12:11:29.928Z,101469.34
2022-09-10T12:13:57.774Z,101460.81
2022-09-10T12:16:29.518Z,101461.69
2022-09-10T12:18:58.824Z,101455.00
2022-09-10T12:21:26.043Z,101453.41
2022-09-10T12:23:54.389Z,101445.88
2022-09-10T12:26:22.264Z,101454.75
2022-09-10T12:28:49.662Z,101458.00
2022-09-10T12:31:18.228Z,101454.25
2022-09-10T12:33:45.419Z,101451.34
2022-09-10T12:36:14.298Z,101455.63
2022-09-10T12:39:00.046Z,101454.25
2022-09-10T12:41:27.473Z,101455.28
2022-09-10T12:43:56.086Z,101449.44
2022-09-10T12:46:25.793Z,101447.31
2022-09-10T12:48:56.139Z,101449.06
2022-09-10T12:51:42.039Z,101451.28
2022-09-10T12:54:24.740Z,101454.25
2022-09-10T12:57:12.883Z,101449.81
2022-09-10T12:59:58.959Z,101451.06
2022-09-10T13:02:35.004Z,101450.41
2022-09-10T13:05:06.300Z,101455.94
2022-09-10T13:07:40.337Z,101455.47
2022-09-10T13:10:08.001Z,101459.63
2022-09-10T13:12:36.483Z,101454.00
2022-09-10T13:15:04.979Z,101457.91
2022-09-10T13:17:39.836Z,101458.94
2022-09-10T13:20:22.101Z,101454.16
2022-09-10T13:23:04.403Z,101454.75
2022-09-10T13:25:40.202Z,101451.56
2022-09-10T13:28:25.873Z,101456.72
2022-09-10T13:31:19.326Z,101450.03
2022-09-10T13:33:49.402Z,101448.50
2022-09-10T13:36:24.741Z,101457.00
2022-09-10T13:38:55.653Z,101449.56
2022-09-10T13:41:43.617Z,101449.56
2022-09-10T13:44:33.523Z,101452.06
2022-09-10T13:47:04.340Z,101448.13
2022-09-10T13:49:51.596Z,101436.50
2022-09-10T13:52:21.838Z,101440.72
2022-09-10T13:54:51.644Z,101435.00
2022-09-10T13:57:25.973Z,101429.63
2022-09-10T13:59:59.559Z,101433.44
2022-09-10T14:02:47.595Z,101433.03
2022-09-10T14:05:26.286Z,101433.78
2022-09-10T14:07:55.476Z,101432.88
2022-09-10T14:10:22.820Z,101420.97
2022-09-10T14:12:50.863Z,101425.41
2022-09-10T14:15:20.781Z,101426.63
2022-09-10T14:17:50.787Z,101420.66
2022-09-10T14:20:25.940Z,101420.72
2022-09-10T14:23:16.631Z,101426.41
2022-09-10T14:25:45.121Z,101413.06
2022-09-10T14:28:26.050Z,101416.00
2022-09-10T14:31:13.905Z,101419.97
2022-09-10T14:33:41.339Z,101417.72
2022-09-10T14:36:16.285Z,101419.00
2022-09-10T14:38:45.905Z,101414.31
2022-09-10T14:41:21.828Z,101414.06
2022-09-10T14:44:09.058Z,101418.25
2022-09-10T14:46:51.762Z,101424.63
2022-09-10T14:49:25.680Z,101422.91
2022-09-10T14:51:53.236Z,101419.72
2022-09-10T14:54:20.547Z,101423.94
2022-09-10T14:56:48.434Z,101426.63
2022-09-10T14:59:24.426Z,101421.69
2022-09-10T15:01:51.904Z,101433.56
2022-09-10T15:04:23.739Z,101431.09
2022-09-10T15:06:57.650Z,101431.97
2022-09-10T15:09:26.096Z,101434.53
2022-09-10T15:11:59.124Z,101433.56
2022-09-10T15:14:26.652Z,101428.38
2022-09-10T15:16:54.168Z,101425.66
2022-09-10T15:19:21.959Z,101428.13
2022-09-10T15:21:49.592Z,101427.38
2022-09-10T15:24:18.430Z,101440.41
2022-09-10T15:26:45.872Z,101430.69
2022-09-10T15:29:14.449Z,101425.63
2022-09-10T15:31:42.380Z,101428.13
2022-09-10T15:34:10.736Z,101420.00
2022-09-10T15:36:40.011Z,101418.72
2022-09-10T15:39:08.280Z,101422.19
2022-09-10T15:41:35.543Z,101424.44
2022-09-10T15:44:03.412Z,101421.72
2022-09-10T15:46:30.731Z,101423.16
2022-09-10T15:48:59.535Z,101422.63
2022-09-10T15:51:27.334Z,101418.72
2022-09-10T15:53:54.697Z,101422.19
2022-09-10T15:56:23.185Z,101422.47
2022-09-10T15:58:52.015Z,101428.59
2022-09-10T16:01:19.348Z,101427.63
2022-09-10T16:03:51.788Z,101429.84
2022-09-10T16:06:19.837Z,101427.00
2022-09-10T16:08:50.834Z,101424.16
2022-09-10T16:11:18.256Z,101417.75
2022-09-10T16:13:45.729Z,101414.56
2022-09-10T16:16:16.042Z,101418.84
2022-09-10T16:18:43.844Z,101421.94
2022-09-10T16:21:13.044Z,101423.69
2022-09-10T16:23:41.493Z,101424.91
2022-09-10T16:26:09.768Z,101424.19
2022-09-10T16:28:37.591Z,101420.72
2022-09-10T16:31:15.553Z,101420.44
2022-09-10T16:33:43.578Z,101418.47
2022-09-10T16:36:11.045Z,101417.25
2022-09-10T16:38:39.228Z,101415.53
2022-09-10T16:41:07.089Z,101415.78
2022-09-10T16:43:38.355Z,101415.53
2022-09-10T16:46:06.676Z,101412.06
2022-09-10T16:48:34.455Z,101412.94
2022-09-10T16:51:09.339Z,101412.06
2022-09-10T16:53:36.957Z,101408.38
2022-09-10T16:56:05.281Z,101422.69
2022-09-10T16:58:35.951Z,101414.69
2022-09-10T17:01:04.641Z,101413.44
2022-09-10T17:03:31.905Z,101412.81
2022-09-10T17:05:59.448Z,101417.69
2022-09-10T17:08:27.576Z,101412.84
2022-09-10T17:10:55.557Z,101412.25
2022-09-10T17:13:22.792Z,101405.44
2022-09-10T17:15:50.803Z,101401.78
2022-09-10T17:18:18.011Z,101404.13
2022-09-10T17:20:48.306Z,101401.63
2022-09-10T17:23:18.669Z,101407.88
2022-09-10T17:25:45.861Z,101399.72
2022-09-10T17:28:13.132Z,101401.19
2022-09-10T17:30:40.449Z,101410.78
2022-09-10T17:33:07.652Z,101414.06
2022-09-10T17:35:35.027Z,101413.56
2022-09-10T17:38:02.206Z,101407.25
2022-09-10T17:40:29.654Z,101420.88
2022-09-10T17:42:56.885Z,101420.28
2022-09-10T17:45:24.403Z,101420.78
2022-09-10T17:47:51.732Z,101414.41
2022-09-10T17:50:19.095Z,101415.56
2022-09-10T17:52:46.552Z,101416.91
2022-09-10T17:55:13.873Z,101416.03
2022-09-10T17:57:41.154Z,101420.88
2022-09-10T18:00:08.869Z,101416.75
2022-09-10T18:02:36.176Z,101422.94
2022-09-10T18:05:05.609Z,101413.63
2022-09-10T18:07:32.929Z,101419.22
2022-09-10T18:10:00.111Z,101418.47
2022-09-10T18:12:27.415Z,101408.53
2022-09-10T18:14:54.607Z,101409.00
2022-09-10T18:17:22.531Z,101409.41
2022-09-10T18:19:50.395Z,101410.97
2022-09-10T18:22:17.596Z,101409.69
2022-09-10T18:24:45.064Z,101405.69
2022-09-10T18:27:12.494Z,101414.91
2022-09-10T18:29:41.576Z,101419.31
2022-09-10T18:32:09.867Z,101415.81
2022-09-10T18:34:37.143Z,101409.41
2022-09-10T18:37:04.667Z,101418.81
2022-09-10T18:39:34.115Z,101420.22
2022-09-10T18:42:01.693Z,101418.81
2022-09-10T18:44:37.036Z,101420.91
2022-09-10T18:47:17.677Z,101419.03
2022-09-10T18:49:45.364Z,101422.47
2022-09-10T18:52:13.832Z,101432.06
2022-09-10T18:54:46.320Z,101429.69
2022-09-10T18:57:13.956Z,101434.94
2022-09-10T18:59:41.137Z,101436.44
2022-09-10T19:02:10.339Z,101431.16
2022-09-10T19:04:54.404Z,101426.16
2022-09-10T19:07:25.245Z,101429.88
2022-09-10T19:09:52.601Z,101427.44
2022-09-10T19:12:19.881Z,101432.94
2022-09-10T19:14:47.073Z,101429.94
2022-09-10T19:17:15.889Z,101423.56
2022-09-10T19:19:43.109Z,101425.19
2022-09-10T19:22:13.455Z,101428.38
2022-09-10T19:24:56.413Z,101425.38
2022-09-10T19:27:24.409Z,101429.88
2022-09-10T19:29:52.060Z,101419.78
2022-09-10T19:32:22.404Z,101425.06
2022-09-10T19:34:50.433Z,101416.75
2022-09-10T19:37:17.696Z,101414.06
2022-09-10T19:39:45.493Z,101411.59
2022-09-10T19:42:13.185Z,101406.78
2022-09-10T19:44:40.475Z,101407.63
2022-09-10T19:47:07.850Z,101408.69
2022-09-10T19:49:35.373Z,101407.91
2022-09-10T19:52:04.379Z,101399.31
2022-09-10T19:54:31.956Z,101398.28
2022-09-10T19:56:59.132Z,101392.59
2022-09-10T19:59:26.555Z,101397.25
2022-09-10T20:01:53.887Z,101396.53
2022-09-10T20:04:21.260Z,101390.72
2022-09-10T20:06:50.439Z,101387.81
2022-09-10T20:09:17.811Z,101391.03
2022-09-10T20:11:45.370Z,101393.09
2022-09-10T20:14:13.841Z,101391.72
2022-09-10T20:16:42.930Z,101393.28
2022-09-10T20:19:11.329Z,101385.69
2022-09-10T20:21:38.580Z,101386.25
2022-09-10T20:24:07.013Z,101381.72
2022-09-10T20:26:35.610Z,101388.03
2022-09-10T20:29:05.284Z,101393.22
2022-09-10T20:31:34.174Z,101391.38
2022-09-10T20:34:05.854Z,101388.19
2022-09-10T20:36:34.437Z,101375.94
2022-09-10T20:39:02.288Z,101382.06
2022-09-10T20:41:30.642Z,101376.78
2022-09-10T20:43:59.212Z,101370.00
2022-09-10T20:46:27.990Z,101376.38
2022-09-10T20:49:02.922Z,101373.34
2022-09-10T20:51:31.822Z,101381.59
2022-09-10T20:53:59.204Z,101375.44
2022-09-10T20:56:26.503Z,101377.69
2022-09-10T20:58:53.689Z,101380.56
2022-09-10T21:01:22.485Z,101380.31
2022-09-10T21:03:50.529Z,101367.81
2022-09-10T21:06:19.710Z,101361.56
2022-09-10T21:08:48.039Z,101362.16
2022-09-10T21:11:16.899Z,101359.06
2022-09-10T21:13:45.315Z,101354.97
2022-09-10T21:16:14.135Z,101361.47
2022-09-10T21:18:42.661Z,101359.56
2022-09-10T21:21:11.681Z,101358.69
2022-09-10T21:23:58.207Z,101353.78
2022-09-10T21:26:27.013Z,101365.22
2022-09-10T21:28:56.371Z,101355.38
2022-09-10T21:31:24.289Z,101362.44
2022-09-10T21:33:51.555Z,101364.44
2022-09-10T21:36:20.344Z,101365.44
2022-09-10T21:38:48.356Z,101363.72
2022-09-10T21:41:16.853Z,101361.72
2022-09-10T21:43:45.065Z,101366.66
2022-09-10T21:46:13.670Z,101364.22
2022-09-10T21:48:42.362Z,101354.31
2022-09-10T21:51:14.161Z,101361.13
2022-09-10T21:53:42.184Z,101355.56
2022-09-10T21:56:11.283Z,101355.34
2022-09-10T21:58:38.940Z,101352.63
2022-09-10T22:01:13.892Z,101352.84
2022-09-10T22:03:41.608Z,101351.13
2022-09-10T22:06:08.806Z,101348.66
2022-09-10T22:08:36.597Z,101342.53
2022-09-10T22:11:08.296Z,101339.56
2022-09-10T22:13:37.846Z,101353.34
2022-09-10T22:16:05.912Z,101345.69
2022-09-10T22:18:34.281Z,101349.41
2022-09-10T22:21:02.206Z,101343.75
2022-09-10T22:23:37.076Z,101346.91
2022-09-10T22:26:08.840Z,101345.69
2022-09-10T22:28:36.995Z,101343.28
2022-09-10T22:31:14.867Z,101343.00
2022-09-10T22:33:43.406Z,101342.75
2022-09-10T22:36:10.736Z,101336.06
2022-09-10T22:38:38.165Z,101333.63
2022-09-10T22:41:05.773Z,101334.84
2022-09-10T22:43:33.088Z,101335.09
2022-09-10T22:46:00.369Z,101336.19
2022-09-10T22:48:27.771Z,101330.03
2022-09-10T22:50:55.444Z,101327.97
2022-09-10T22:53:22.812Z,101330.91
2022-09-10T22:55:50.980Z,101326.25
2022-09-10T22:58:19.059Z,101327.94
2022-09-10T23:00:46.256Z,101314.88
2022-09-10T23:03:13.589Z,101325.50
2022-09-10T23:05:40.901Z,101324.28
2022-09-10T23:08:08.220Z,101326.00
2022-09-10T23:10:35.447Z,101329.44
2022-09-10T23:13:02.813Z,101327.09
2022-09-10T23:15:31.035Z,101322.56
2022-09-10T23:17:59.874Z,101318.34
2022-09-10T23:20:27.185Z,101317.13
2022-09-10T23:22:54.532Z,101313.44
2022-09-10T23:25:21.841Z,101317.22
2022-09-10T23:27:51.204Z,101314.13
2022-09-10T23:30:18.637Z,101308.00
2022-09-10T23:32:46.612Z,101305.53
2022-09-10T23:35:13.827Z,101305.03
2022-09-10T23:37:42.255Z,101303.06
2022-09-10T23:40:12.009Z,101300.47
2022-09-10T23:42:39.534Z,101300.34
2022-09-10T23:45:07.198Z,101301.69
2022-09-10T23:47:34.809Z,101301.59
2022-09-10T23:50:02.239Z,101293.47
2022-09-10T23:52:29.665Z,101300.47
2022-09-10T23:54:56.953Z,101293.66
2022-09-10T23:57:24.382Z,101294.78
2022-09-10T23:59:51.571Z,101289.13
